KPUB

Pueblo Memorial Airport

Pueblo, Colorado, USA
METAR KPUB 141153Z AUTO 26007KT 10SM CLR M08/M13 A3029 RMK AO2 SLP285 T10831133 11067 21122 58001
Observed Flight Rules
Dec-14 @ 11:53 UTC (28 minutes ago) Visual Flight Rules
Wind Visibility Clouds
260° at 7 knots 10 miles
  • Clear skies
Temperatures Readings
Current -8°C / 18°F
Dewpoint -13°C / 9°F
Humidity 68%
Altimeter 30.29" Hg
Pressure 1028.5 hPa
Elevation 1420
METAR KPUB 141153Z AUTO 26007KT 10SM CLR M08/M13 A3029 RMK AO2 SLP285 T10831133 11067 21122 58001
Observed Flight Rules
Dec-14 @ 11:53 UTC
(28 minutes ago)
VFR
Wind Visibility
260° at 7 knots 10 miles
Clouds
  • Clear skies
Temperature Dewpoint
-8°C / 18°F -13°C / 9°F
Humidity Altimeter Pressure
68% 30.29" Hg 1028.5 hPa